Chateauguay, Canada
Current Conditions -  °F | °C
As of 4:00 PM on Tuesday 25 Nov 2014 (Local Time) from CYUL Reporting Station
Broken Clouds Broken Clouds  
Wind Chill: 33°   Ceiling: 4000
Heat Index: 43°   Visibility: 30mi
Dew Point: 32°   Wind: 28mph
Humidity: 66%   Direction: 220°SW
Pressure: 29.86"   Gusts: 38mph
Location:  45.38°N, 73.75°W
Report Text: CYUL 252100Z 22024G33KT 30SM BKN040 BKN095 06/M00 A2986 RMK SC5AC2 SLP113
Loading
Personal Weather Stations






























Interactive Weather Map New forecast layout! Learn more

10-Day Weather Forecast

Advertisements
Track Severe Weather on mobile